createdAt,value
2023-06-24T00:00:32.962Z,1012.80
2023-06-24T00:01:18.903Z,1012.90
2023-06-24T00:02:05.178Z,1012.70
2023-06-24T00:02:50.919Z,1012.70
2023-06-24T00:03:36.930Z,1012.70
2023-06-24T00:04:22.910Z,1012.39
2023-06-24T00:05:08.910Z,1012.70
2023-06-24T00:05:54.894Z,1013.00
2023-06-24T00:06:41.074Z,1013.00
2023-06-24T00:07:26.385Z,1013.00
2023-06-24T00:08:12.947Z,1012.70
2023-06-24T00:08:58.935Z,1013.00
2023-06-24T00:09:44.886Z,1013.00
2023-06-24T00:10:31.035Z,1012.80
2023-06-24T00:11:17.216Z,1012.70
2023-06-24T00:12:02.943Z,1012.90
2023-06-24T00:12:48.935Z,1012.90
2023-06-24T00:13:35.261Z,1012.60
2023-06-24T00:14:20.896Z,1012.90
2023-06-24T00:15:07.108Z,1012.90
2023-06-24T00:15:53.078Z,1012.70
2023-06-24T00:16:38.967Z,1012.70
2023-06-24T00:17:24.955Z,1012.70
2023-06-24T00:18:10.988Z,1012.90
2023-06-24T00:18:56.956Z,1012.60
2023-06-24T00:19:42.959Z,1012.60
2023-06-24T00:20:28.965Z,1012.60
2023-06-24T00:21:14.979Z,1012.70
2023-06-24T00:22:00.976Z,1012.70
2023-06-24T00:22:47.008Z,1012.70
2023-06-24T00:23:32.990Z,1012.90
2023-06-24T00:24:18.996Z,1012.90
2023-06-24T00:25:05.389Z,1013.00
2023-06-24T00:25:50.979Z,1013.00
2023-06-24T00:26:37.027Z,1012.90
2023-06-24T00:27:22.991Z,1012.70
2023-06-24T00:28:09.006Z,1012.80
2023-06-24T00:28:55.006Z,1012.90
2023-06-24T00:29:41.001Z,1012.90
2023-06-24T00:30:27.073Z,1012.80
2023-06-24T00:31:13.100Z,1012.39
2023-06-24T00:31:59.022Z,1012.70
2023-06-24T00:32:45.037Z,1012.70
2023-06-24T00:33:31.001Z,1012.70
2023-06-24T00:34:17.016Z,1012.80
2023-06-24T00:35:03.050Z,1012.90
2023-06-24T00:35:49.039Z,1012.90
2023-06-24T00:36:35.352Z,1012.70
2023-06-24T00:37:21.075Z,1012.70
2023-06-24T00:38:07.049Z,1012.70
2023-06-24T00:38:53.170Z,1012.80
2023-06-24T00:39:39.477Z,1012.80
2023-06-24T00:40:24.986Z,1013.10
2023-06-24T00:41:11.045Z,1012.80
2023-06-24T00:41:56.991Z,1012.70
2023-06-24T00:42:43.036Z,1012.70
2023-06-24T00:43:28.969Z,1012.70
2023-06-24T00:44:15.048Z,1012.90
2023-06-24T00:45:01.171Z,1012.70
2023-06-24T00:45:47.082Z,1012.70
2023-06-24T00:46:32.973Z,1012.70
2023-06-24T00:47:19.072Z,1012.80
2023-06-24T00:48:05.436Z,1013.00
2023-06-24T00:48:51.002Z,1013.00
2023-06-24T00:49:37.105Z,1012.80
2023-06-24T00:50:23.941Z,1012.80
2023-06-24T00:51:09.082Z,1012.70
2023-06-24T00:51:55.106Z,1012.90
2023-06-24T00:52:41.083Z,1012.90
2023-06-24T00:53:27.053Z,1012.70
2023-06-24T00:54:13.016Z,1012.90
2023-06-24T00:54:59.072Z,1012.80
2023-06-24T00:55:45.104Z,1012.80
2023-06-24T00:56:31.147Z,1013.00
2023-06-24T00:57:17.121Z,1012.90
2023-06-24T00:58:03.062Z,1012.70
2023-06-24T00:58:51.377Z,1012.70
2023-06-24T00:59:35.390Z,1013.00
2023-06-24T01:00:21.230Z,1012.80
2023-06-24T01:01:07.086Z,1012.80
2023-06-24T01:01:53.198Z,1012.90
2023-06-24T01:02:39.099Z,1012.90
2023-06-24T01:03:25.074Z,1012.90
2023-06-24T01:04:11.027Z,1012.80
2023-06-24T01:04:57.040Z,1013.00
2023-06-24T01:05:43.039Z,1013.00
2023-06-24T01:06:29.011Z,1013.00
2023-06-24T01:07:15.087Z,1012.70
2023-06-24T01:08:01.158Z,1012.90
2023-06-24T01:08:47.091Z,1012.90
2023-06-24T01:09:33.113Z,1013.00
2023-06-24T01:10:19.124Z,1012.80
2023-06-24T01:11:05.545Z,1012.80
2023-06-24T01:11:51.132Z,1012.80
2023-06-24T01:12:37.121Z,1012.90
2023-06-24T01:13:23.146Z,1012.90
2023-06-24T01:14:09.175Z,1012.90
2023-06-24T01:14:55.067Z,1012.70
2023-06-24T01:15:41.201Z,1012.70
2023-06-24T01:16:27.142Z,1013.00
2023-06-24T01:17:13.073Z,1013.00
2023-06-24T01:17:59.163Z,1012.90
2023-06-24T01:18:45.185Z,1012.90
2023-06-24T01:19:31.065Z,1012.90
2023-06-24T01:20:17.112Z,1012.90
2023-06-24T01:21:03.105Z,1013.00
2023-06-24T01:21:49.176Z,1013.00
2023-06-24T01:22:35.440Z,1012.90
2023-06-24T01:23:21.135Z,1013.00
2023-06-24T01:24:07.139Z,1012.70
2023-06-24T01:24:53.254Z,1012.70
2023-06-24T01:25:39.101Z,1012.70
2023-06-24T01:26:25.070Z,1012.80
2023-06-24T01:27:11.109Z,1012.90
2023-06-24T01:27:57.172Z,1013.00
2023-06-24T01:28:43.087Z,1013.00
2023-06-24T01:29:29.129Z,1013.00
2023-06-24T01:30:15.205Z,1012.90
2023-06-24T01:31:01.165Z,1013.00
2023-06-24T01:31:47.280Z,1013.00
2023-06-24T01:32:33.218Z,1013.10
2023-06-24T01:33:19.257Z,1012.90
2023-06-24T01:34:05.508Z,1013.00
2023-06-24T01:34:51.182Z,1013.00
2023-06-24T01:35:37.359Z,1013.00
2023-06-24T01:36:23.212Z,1012.90
2023-06-24T01:37:09.313Z,1013.10
2023-06-24T01:37:55.249Z,1012.90
2023-06-24T01:38:41.185Z,1012.90
2023-06-24T01:39:27.143Z,1012.80
2023-06-24T01:40:13.123Z,1013.00
2023-06-24T01:40:59.174Z,1013.10
2023-06-24T01:41:45.165Z,1013.10
2023-06-24T01:42:31.188Z,1012.80
2023-06-24T01:43:17.194Z,1013.00
2023-06-24T01:44:03.208Z,1013.00
2023-06-24T01:44:49.200Z,1013.00
2023-06-24T01:45:35.706Z,1012.90
2023-06-24T01:46:21.203Z,1012.80
2023-06-24T01:47:07.248Z,1013.10
2023-06-24T01:47:53.364Z,1012.80
2023-06-24T01:48:39.169Z,1012.80
2023-06-24T01:49:25.156Z,1013.00
2023-06-24T01:50:11.175Z,1013.00
2023-06-24T01:50:57.296Z,1012.90
2023-06-24T01:51:43.168Z,1012.90
2023-06-24T01:52:29.151Z,1012.70
2023-06-24T01:53:15.255Z,1013.00
2023-06-24T01:54:01.245Z,1012.90
2023-06-24T01:54:47.231Z,1012.90
2023-06-24T01:55:33.371Z,1013.00
2023-06-24T01:56:19.231Z,1013.00
2023-06-24T01:57:05.502Z,1013.00
2023-06-24T01:57:51.257Z,1013.00
2023-06-24T01:58:37.316Z,1013.00
2023-06-24T01:59:23.260Z,1012.90
2023-06-24T10:04:56.781Z,1012.80
2023-06-24T10:05:42.809Z,1012.80
2023-06-24T10:06:28.786Z,1013.00
2023-06-24T10:07:14.788Z,1012.80
2023-06-24T10:08:01.031Z,1013.00
2023-06-24T10:08:46.862Z,1013.00
2023-06-24T10:09:32.792Z,1012.80
2023-06-24T10:10:18.863Z,1012.70
2023-06-24T10:11:04.922Z,1012.90
2023-06-24T10:11:50.867Z,1012.90
2023-06-24T10:12:36.933Z,1012.80
2023-06-24T10:13:22.886Z,1012.90
2023-06-24T10:14:08.814Z,1012.80
2023-06-24T10:14:54.831Z,1012.70
2023-06-24T10:15:41.050Z,1012.70
2023-06-24T10:16:26.997Z,1013.00
2023-06-24T10:17:12.923Z,1013.00
2023-06-24T10:18:15.588Z,1012.80
2023-06-24T10:18:44.815Z,1012.80
2023-06-24T10:19:30.919Z,1013.00
2023-06-24T10:20:17.006Z,1013.00
2023-06-24T10:21:02.912Z,1012.90
2023-06-24T10:21:48.895Z,1012.90
2023-06-24T10:22:34.843Z,1012.70
2023-06-24T10:23:20.830Z,1012.80
2023-06-24T10:24:06.902Z,1012.60
2023-06-24T10:24:53.155Z,1012.80
2023-06-24T10:25:38.865Z,1012.80
2023-06-24T10:26:24.893Z,1012.60
2023-06-24T10:27:10.880Z,1012.49
2023-06-24T10:27:56.850Z,1012.60
2023-06-24T10:28:42.822Z,1012.60
2023-06-24T10:29:28.873Z,1012.49
2023-06-24T10:30:14.993Z,1012.70
2023-06-24T10:31:00.944Z,1012.60
2023-06-24T10:31:47.022Z,1012.60
2023-06-24T10:32:33.006Z,1012.39
2023-06-24T10:33:18.926Z,1012.29
2023-06-24T10:34:07.096Z,1012.39
2023-06-24T10:34:50.940Z,1012.39
2023-06-24T10:35:36.943Z,1012.49
2023-06-24T10:36:23.046Z,1012.70
2023-06-24T10:37:08.972Z,1012.60
2023-06-24T10:37:54.920Z,1012.49
2023-06-24T10:38:40.976Z,1012.49
2023-06-24T10:39:26.879Z,1012.60
2023-06-24T10:40:12.987Z,1012.60
2023-06-24T10:40:58.951Z,1012.39
2023-06-24T10:41:44.992Z,1012.39
2023-06-24T10:42:30.976Z,1012.49
2023-06-24T10:43:16.974Z,1012.60
2023-06-24T10:44:02.941Z,1012.49
2023-06-24T10:44:48.906Z,1012.49
2023-06-24T10:45:35.134Z,1012.49
2023-06-24T10:46:21.024Z,1012.60
2023-06-24T10:47:07.046Z,1012.29
2023-06-24T10:47:53.036Z,1012.49
2023-06-24T10:48:38.977Z,1012.49
2023-06-24T10:49:24.985Z,1012.49
2023-06-24T10:50:10.940Z,1012.39
2023-06-24T10:50:56.979Z,1012.39
2023-06-24T10:51:42.966Z,1012.39
2023-06-24T10:52:29.019Z,1012.39
2023-06-24T10:53:14.963Z,1012.39
2023-06-24T10:54:01.059Z,1012.39
2023-06-24T10:54:47.002Z,1012.39
2023-06-24T10:55:33.023Z,1012.29
2023-06-24T10:56:18.950Z,1012.49
2023-06-24T10:57:04.989Z,1012.49
2023-06-24T10:57:50.960Z,1012.49
2023-06-24T10:58:37.032Z,1011.99
2023-06-24T10:59:23.127Z,1012.39
2023-06-24T11:00:09.095Z,1012.19
2023-06-24T11:00:55.084Z,1012.29
2023-06-24T11:01:40.990Z,1012.29
2023-06-24T11:02:27.127Z,1012.39
2023-06-24T11:03:13.066Z,1012.39
2023-06-24T11:03:59.023Z,1012.19
2023-06-24T11:04:45.006Z,1012.19
2023-06-24T11:05:31.034Z,1012.19
2023-06-24T11:06:17.036Z,1012.19
2023-06-24T11:07:03.098Z,1012.09
2023-06-24T11:07:49.064Z,1012.09
2023-06-24T11:08:34.973Z,1012.09
2023-06-24T11:09:21.028Z,1012.29
2023-06-24T11:10:07.238Z,1012.19
2023-06-24T11:10:53.148Z,1012.19
2023-06-24T11:11:39.119Z,1012.19
2023-06-24T11:12:25.040Z,1012.19
2023-06-24T11:13:11.031Z,1012.19
2023-06-24T11:13:57.014Z,1011.99
2023-06-24T11:14:42.978Z,1011.99
2023-06-24T11:15:29.131Z,1012.19
2023-06-24T11:16:15.075Z,1012.09
2023-06-24T11:17:01.051Z,1012.09
2023-06-24T11:17:47.153Z,1012.09
2023-06-24T11:18:33.088Z,1011.89
2023-06-24T11:19:19.010Z,1012.09
2023-06-24T11:20:05.009Z,1012.29
2023-06-24T11:20:51.055Z,1012.29
2023-06-24T11:21:37.081Z,1011.89
2023-06-24T11:22:23.163Z,1012.29
2023-06-24T11:23:09.037Z,1012.09
2023-06-24T11:23:55.081Z,1011.89
2023-06-24T11:24:41.033Z,1011.89
2023-06-24T11:25:27.068Z,1011.89
2023-06-24T11:26:13.018Z,1011.99
2023-06-24T11:26:59.077Z,1011.89
2023-06-24T11:27:45.051Z,1011.89
2023-06-24T11:28:31.095Z,1011.89
2023-06-24T11:29:17.132Z,1011.89
2023-06-24T11:30:03.190Z,1011.89
2023-06-24T11:30:49.093Z,1011.89
2023-06-24T11:31:35.060Z,1011.89
2023-06-24T11:32:21.177Z,1011.78
2023-06-24T11:33:07.219Z,1011.78
2023-06-24T11:33:53.192Z,1011.78
2023-06-24T11:34:39.477Z,1011.78
2023-06-24T11:35:25.078Z,1011.78
2023-06-24T11:36:11.034Z,1011.78
2023-06-24T11:36:57.053Z,1011.99
2023-06-24T11:37:43.152Z,1011.99
2023-06-24T11:38:29.067Z,1011.89
2023-06-24T11:39:15.098Z,1011.72
2023-06-24T11:40:01.106Z,1011.72
2023-06-24T11:40:47.201Z,1011.72
2023-06-24T11:41:33.167Z,1011.61
2023-06-24T11:42:19.104Z,1011.89
2023-06-24T11:43:05.175Z,1011.72
2023-06-24T11:43:51.122Z,1011.72
2023-06-24T11:44:37.184Z,1011.72
2023-06-24T11:45:23.456Z,1011.78
2023-06-24T11:46:09.075Z,1011.72
2023-06-24T11:46:55.128Z,1011.61
2023-06-24T11:47:41.139Z,1011.61
2023-06-24T11:48:27.119Z,1011.72
2023-06-24T11:49:13.100Z,1011.72
2023-06-24T11:49:59.144Z,1011.61
2023-06-24T11:50:45.142Z,1011.61
2023-06-24T11:51:31.208Z,1011.61
2023-06-24T11:52:17.145Z,1011.51
2023-06-24T11:53:03.170Z,1011.61
2023-06-24T11:53:49.124Z,1011.61
2023-06-24T11:54:35.104Z,1011.61
2023-06-24T11:55:21.182Z,1011.72
2023-06-24T11:56:07.184Z,1011.72
2023-06-24T11:56:53.233Z,1011.78
2023-06-24T11:57:39.122Z,1011.78
2023-06-24T11:58:25.154Z,1011.61
2023-06-24T11:59:11.035Z,1011.61
2023-06-24T11:59:57.021Z,1011.61
2023-06-24T12:00:43.127Z,1011.61
2023-06-24T12:01:29.097Z,1011.72
2023-06-24T12:02:15.074Z,1011.78
2023-06-24T12:03:01.400Z,1011.78
2023-06-24T12:03:47.292Z,1011.78
2023-06-24T12:04:33.437Z,1011.61
2023-06-24T12:05:19.395Z,1011.72
2023-06-24T12:06:05.223Z,1011.61
2023-06-24T12:06:51.237Z,1011.61
2023-06-24T12:07:37.221Z,1011.78
2023-06-24T12:08:23.239Z,1011.51
2023-06-24T12:09:11.096Z,1011.61
2023-06-24T12:09:55.239Z,1011.72
2023-06-24T12:10:41.247Z,1011.72
2023-06-24T12:11:27.235Z,1011.72
2023-06-24T12:12:13.195Z,1011.78
2023-06-24T12:12:59.240Z,1011.61
2023-06-24T12:13:45.188Z,1011.61
2023-06-24T12:14:31.173Z,1011.51
2023-06-24T12:15:17.330Z,1011.72
2023-06-24T12:16:03.282Z,1011.41
2023-06-24T12:16:49.143Z,1011.41
2023-06-24T12:17:35.282Z,1011.41
2023-06-24T12:18:21.188Z,1011.51
2023-06-24T12:19:07.219Z,1011.51
2023-06-24T12:19:53.281Z,1011.61
2023-06-24T12:20:39.567Z,1011.61
2023-06-24T12:21:25.214Z,1011.51
2023-06-24T12:22:11.335Z,1011.51
2023-06-24T12:22:57.283Z,1011.41
2023-06-24T12:23:43.183Z,1011.41
2023-06-24T12:24:29.283Z,1011.72
2023-06-24T12:25:15.336Z,1011.51
2023-06-24T12:26:01.200Z,1011.51
2023-06-24T12:26:47.296Z,1011.51
2023-06-24T12:27:33.254Z,1011.41
2023-06-24T12:28:19.252Z,1011.21
2023-06-24T12:29:05.176Z,1011.21
2023-06-24T12:29:51.224Z,1011.21
2023-06-24T12:30:37.513Z,1011.31
2023-06-24T12:31:23.327Z,1011.31
2023-06-24T12:32:09.321Z,1011.51
2023-06-24T12:32:55.359Z,1011.41
2023-06-24T12:33:41.189Z,1011.41
2023-06-24T12:34:27.205Z,1011.31
2023-06-24T12:35:13.243Z,1011.21
2023-06-24T12:35:59.249Z,1011.41
2023-06-24T12:36:45.255Z,1011.41
2023-06-24T12:37:31.314Z,1011.31
2023-06-24T12:38:17.302Z,1011.31
2023-06-24T12:39:03.267Z,1011.41
2023-06-24T12:39:49.312Z,1011.41
2023-06-24T12:40:35.601Z,1011.41
2023-06-24T12:41:21.276Z,1011.51
2023-06-24T12:42:07.285Z,1011.11
2023-06-24T12:42:53.329Z,1011.31
2023-06-24T12:43:39.309Z,1011.31
2023-06-24T12:44:25.284Z,1011.21
2023-06-24T12:45:11.393Z,1011.11
2023-06-24T12:45:57.223Z,1011.11
2023-06-24T12:46:43.225Z,1011.11
2023-06-24T12:47:29.304Z,1011.21
2023-06-24T12:48:15.256Z,1011.11
2023-06-24T12:49:01.293Z,1011.21
2023-06-24T12:49:47.348Z,1011.21
2023-06-24T12:50:33.496Z,1011.11
2023-06-24T12:51:19.285Z,1011.21
2023-06-24T12:52:05.308Z,1011.11
2023-06-24T12:52:51.301Z,1011.11
2023-06-24T12:53:37.320Z,1011.21
2023-06-24T12:54:23.336Z,1011.31
2023-06-24T12:55:09.360Z,1011.00
2023-06-24T12:55:55.329Z,1011.11
2023-06-24T12:56:41.263Z,1011.11
2023-06-24T12:57:27.351Z,1011.11
2023-06-24T12:58:13.336Z,1011.00
2023-06-24T12:58:59.318Z,1011.31
2023-06-24T12:59:45.267Z,1011.31
2023-06-24T13:00:31.426Z,1011.00
2023-06-24T13:01:19.300Z,1010.90
2023-06-24T13:02:03.362Z,1011.11
2023-06-24T13:02:49.356Z,1011.11
2023-06-24T13:03:35.342Z,1010.90
2023-06-24T13:04:21.340Z,1011.21
2023-06-24T13:05:07.407Z,1011.21
2023-06-24T13:05:53.445Z,1011.11
2023-06-24T13:06:39.345Z,1011.11
2023-06-24T13:07:25.445Z,1011.31
2023-06-24T13:08:11.302Z,1011.31
2023-06-24T13:08:57.357Z,1011.00
2023-06-24T13:09:43.306Z,1011.00
2023-06-24T13:10:29.318Z,1010.90
2023-06-24T13:11:15.344Z,1011.11
2023-06-24T13:12:01.341Z,1011.11
2023-06-24T13:12:47.887Z,1011.11
2023-06-24T13:13:33.360Z,1010.90
2023-06-24T13:14:19.390Z,1011.11
2023-06-24T13:15:05.413Z,1010.90
2023-06-24T13:15:51.370Z,1010.90
2023-06-24T13:16:37.401Z,1011.00
2023-06-24T13:17:22.708Z,1011.00
2023-06-24T13:18:09.359Z,1011.00
2023-06-24T13:18:55.353Z,1011.00
2023-06-24T13:19:41.373Z,1011.00
2023-06-24T13:20:27.310Z,1011.11
2023-06-24T13:21:16.127Z,1011.00
2023-06-24T13:21:59.347Z,1011.11
2023-06-24T13:22:45.342Z,1011.11
2023-06-24T13:23:31.403Z,1010.80
2023-06-24T13:24:17.427Z,1011.11
2023-06-24T13:25:03.455Z,1010.90
2023-06-24T13:25:49.422Z,1010.90
2023-06-24T13:26:35.327Z,1010.90
2023-06-24T13:27:21.297Z,1011.00
2023-06-24T13:28:07.325Z,1011.11
2023-06-24T13:28:53.470Z,1011.00
2023-06-24T13:29:39.904Z,1011.00
2023-06-24T13:30:25.416Z,1010.80
2023-06-24T13:31:11.383Z,1010.80
2023-06-24T13:31:57.302Z,1010.60
2023-06-24T13:32:43.316Z,1010.60
2023-06-24T13:33:29.339Z,1010.90
2023-06-24T13:34:15.290Z,1011.00
2023-06-24T13:35:01.341Z,1010.90
2023-06-24T13:35:47.340Z,1010.90
2023-06-24T13:36:33.428Z,1010.70
2023-06-24T13:37:19.322Z,1010.90
2023-06-24T13:38:05.415Z,1011.00
2023-06-24T13:38:51.326Z,1011.00
2023-06-24T13:39:37.348Z,1010.80
2023-06-24T13:40:23.499Z,1010.80
2023-06-24T13:41:09.401Z,1010.80
2023-06-24T13:41:55.356Z,1010.90
2023-06-24T13:42:41.336Z,1010.90
2023-06-24T13:43:27.385Z,1010.60
2023-06-24T13:44:13.352Z,1010.90
2023-06-24T13:44:59.275Z,1010.60
2023-06-24T13:45:45.409Z,1010.60
2023-06-24T13:46:31.408Z,1010.80
2023-06-24T13:47:17.383Z,1010.70
2023-06-24T13:48:03.444Z,1010.80
2023-06-24T13:48:49.338Z,1010.80
2023-06-24T13:49:35.342Z,1010.70
2023-06-24T13:50:21.366Z,1010.60
2023-06-24T13:51:07.371Z,1010.90
2023-06-24T13:51:53.473Z,1010.70
2023-06-24T13:52:39.396Z,1010.70
2023-06-24T13:53:25.377Z,1010.60
2023-06-24T13:54:11.357Z,1010.70
2023-06-24T13:54:57.353Z,1010.70
2023-06-24T13:55:43.319Z,1010.70
2023-06-24T13:56:29.380Z,1010.70
2023-06-24T13:57:15.376Z,1010.50
2023-06-24T13:58:01.383Z,1010.50
2023-06-24T13:58:47.500Z,1010.50
2023-06-24T13:59:33.395Z,1010.29
2023-06-24T14:00:19.421Z,1010.60
2023-06-24T14:01:05.422Z,1010.70
2023-06-24T14:01:51.477Z,1010.70
2023-06-24T14:02:37.521Z,1010.80
2023-06-24T14:03:23.555Z,1010.60
2023-06-24T14:04:09.365Z,1010.60
2023-06-24T14:04:55.402Z,1010.60
2023-06-24T14:05:41.384Z,1010.60
2023-06-24T14:06:27.425Z,1010.50
2023-06-24T14:07:13.408Z,1010.60
2023-06-24T14:07:59.421Z,1010.60
2023-06-24T14:08:45.364Z,1010.60
2023-06-24T14:09:31.401Z,1010.60
2023-06-24T14:10:17.510Z,1010.50
2023-06-24T14:11:03.448Z,1010.29
2023-06-24T14:11:49.553Z,1010.29
2023-06-24T14:12:35.448Z,1010.50
2023-06-24T14:13:21.478Z,1010.40
2023-06-24T14:14:07.397Z,1010.40
2023-06-24T14:14:53.524Z,1010.50
2023-06-24T14:15:39.541Z,1010.50
2023-06-24T14:16:25.405Z,1010.29
2023-06-24T14:17:11.398Z,1010.50
2023-06-24T14:17:57.492Z,1010.40
2023-06-24T14:18:43.409Z,1010.40
2023-06-24T14:19:29.461Z,1010.70
2023-06-24T14:20:15.450Z,1010.50
2023-06-24T14:21:01.506Z,1010.40
2023-06-24T14:21:47.478Z,1010.40
2023-06-24T14:22:33.470Z,1010.19
2023-06-24T14:23:19.471Z,1010.60
2023-06-24T14:24:16.012Z,1010.50
2023-06-24T14:24:51.497Z,1010.50
2023-06-24T14:25:37.496Z,1010.40
2023-06-24T14:26:23.575Z,1010.29
2023-06-24T14:27:09.453Z,1010.29
2023-06-24T14:27:55.506Z,1010.29
2023-06-24T14:28:41.467Z,1010.29
2023-06-24T14:29:27.475Z,1010.40
2023-06-24T14:30:13.534Z,1010.40
2023-06-24T14:30:59.507Z,1010.50
2023-06-24T14:31:45.447Z,1010.50
2023-06-24T14:32:31.512Z,1010.29
2023-06-24T14:33:17.482Z,1010.19
2023-06-24T14:34:03.503Z,1010.19
2023-06-24T14:34:49.443Z,1010.19
2023-06-24T14:35:35.442Z,1010.09
2023-06-24T14:36:21.586Z,1010.40
2023-06-24T14:37:07.574Z,1010.09
2023-06-24T14:37:53.539Z,1010.29
2023-06-24T14:38:39.582Z,1010.29
2023-06-24T14:39:25.463Z,1009.99
2023-06-24T14:40:11.571Z,1009.79
2023-06-24T14:40:57.548Z,1010.19
2023-06-24T14:41:43.466Z,1010.19
2023-06-24T14:42:29.496Z,1009.99
2023-06-24T14:43:15.515Z,1009.89
2023-06-24T14:44:01.483Z,1010.19
2023-06-24T14:44:47.511Z,1010.19
2023-06-24T14:45:33.613Z,1009.79
2023-06-24T14:46:19.553Z,1010.09
2023-06-24T14:47:05.495Z,1009.99
2023-06-24T14:47:51.533Z,1009.99
2023-06-24T14:48:37.549Z,1009.99
2023-06-24T14:49:23.644Z,1010.09
2023-06-24T14:50:09.549Z,1009.99
2023-06-24T14:50:55.584Z,1010.09
2023-06-24T14:51:41.626Z,1010.09
2023-06-24T14:52:27.556Z,1009.99
2023-06-24T14:53:13.582Z,1009.99
2023-06-24T14:53:59.606Z,1010.09
2023-06-24T14:54:45.572Z,1010.09
2023-06-24T14:55:31.616Z,1009.79
2023-06-24T14:56:17.666Z,1009.99
2023-06-24T14:57:03.645Z,1010.09
2023-06-24T14:57:49.631Z,1010.09
2023-06-24T14:58:35.842Z,1009.89
2023-06-24T14:59:21.634Z,1009.99
2023-06-24T15:00:07.748Z,1009.89
2023-06-24T15:00:53.701Z,1009.99
2023-06-24T15:01:39.637Z,1009.99
2023-06-24T15:02:25.825Z,1009.99
2023-06-24T15:03:11.658Z,1009.89
2023-06-24T15:03:57.818Z,1009.89
2023-06-24T15:04:43.600Z,1009.89
2023-06-24T15:05:29.645Z,1009.99
2023-06-24T15:06:15.615Z,1009.89
2023-06-24T15:07:01.596Z,1009.99
2023-06-24T15:07:47.651Z,1009.99
2023-06-24T15:08:33.654Z,1009.89
2023-06-24T15:09:19.701Z,1009.89
2023-06-24T15:10:05.700Z,1009.79
2023-06-24T15:10:52.155Z,1009.79
2023-06-24T15:11:37.664Z,1009.58
2023-06-24T15:12:23.748Z,1009.79
2023-06-24T15:13:09.666Z,1009.79
2023-06-24T15:13:55.701Z,1009.89
2023-06-24T15:14:41.660Z,1009.89
2023-06-24T15:15:27.648Z,1009.58
2023-06-24T15:16:13.611Z,1009.58
2023-06-24T15:16:59.636Z,1009.79
2023-06-24T15:17:45.590Z,1009.79
2023-06-24T15:18:31.572Z,1009.79
2023-06-24T15:19:17.640Z,1009.68
2023-06-24T15:20:03.607Z,1009.89
2023-06-24T15:20:49.668Z,1009.89
2023-06-24T15:21:37.294Z,1009.68
2023-06-24T15:22:21.583Z,1009.68
2023-06-24T15:23:07.595Z,1009.68
2023-06-24T15:23:53.674Z,1009.68
2023-06-24T15:24:39.871Z,1009.68
2023-06-24T15:25:25.573Z,1009.68
2023-06-24T15:26:11.581Z,1009.89
2023-06-24T15:26:57.594Z,1009.68
2023-06-24T15:27:43.589Z,1009.68
2023-06-24T15:28:29.633Z,1009.68
2023-06-24T15:29:15.650Z,1009.79
2023-06-24T15:30:02.018Z,1009.79
2023-06-24T15:30:47.627Z,1009.79
2023-06-24T15:31:33.658Z,1009.68
2023-06-24T15:32:19.646Z,1009.68
2023-06-24T15:33:05.756Z,1009.58
2023-06-24T15:33:51.680Z,1009.58
2023-06-24T15:34:37.686Z,1009.31
2023-06-24T15:35:23.753Z,1009.68
2023-06-24T15:36:09.654Z,1009.58
2023-06-24T15:36:55.673Z,1009.58
2023-06-24T15:37:41.622Z,1009.58
2023-06-24T15:38:27.637Z,1009.41
2023-06-24T15:39:13.671Z,1009.79
2023-06-24T15:39:59.724Z,1009.68
2023-06-24T15:40:45.623Z,1009.68
2023-06-24T15:41:31.628Z,1009.58
2023-06-24T15:42:17.678Z,1009.58
2023-06-24T15:43:03.696Z,1009.58
2023-06-24T15:43:49.665Z,1009.58
2023-06-24T15:44:35.608Z,1009.58
2023-06-24T15:45:21.797Z,1009.58
2023-06-24T15:46:07.734Z,1009.51
2023-06-24T15:46:53.728Z,1009.51
2023-06-24T15:47:39.720Z,1009.51
2023-06-24T15:48:25.681Z,1009.41
2023-06-24T15:49:11.664Z,1009.58
2023-06-24T15:49:57.588Z,1009.51
2023-06-24T15:50:43.668Z,1009.51
2023-06-24T15:51:29.691Z,1009.51
2023-06-24T15:52:15.596Z,1009.41
2023-06-24T15:53:01.660Z,1009.41
2023-06-24T15:53:47.685Z,1009.41
2023-06-24T15:54:33.674Z,1009.51
2023-06-24T15:55:19.681Z,1009.51
2023-06-24T15:56:05.676Z,1009.41
2023-06-24T15:56:51.670Z,1009.41
2023-06-24T15:57:37.700Z,1009.51
2023-06-24T15:58:23.797Z,1009.51
2023-06-24T15:59:09.694Z,1009.41
2023-06-24T15:59:55.678Z,1009.41
2023-06-24T16:00:41.744Z,1009.41
2023-06-24T16:01:27.741Z,1009.41
2023-06-24T16:02:13.774Z,1009.21
2023-06-24T16:02:59.838Z,1009.41
2023-06-24T16:03:45.804Z,1009.41
2023-06-24T16:04:31.750Z,1009.41
2023-06-24T16:05:17.709Z,1009.41
2023-06-24T16:06:03.824Z,1009.31
2023-06-24T16:06:49.778Z,1009.31
2023-06-24T16:07:35.665Z,1009.41
2023-06-24T16:08:21.740Z,1009.41
2023-06-24T16:09:07.797Z,1009.51
2023-06-24T16:09:53.812Z,1009.31
2023-06-24T16:10:39.690Z,1009.31
2023-06-24T16:11:25.700Z,1009.21
2023-06-24T16:12:11.687Z,1009.31
2023-06-24T16:12:57.729Z,1009.41
2023-06-24T16:13:43.711Z,1009.41
2023-06-24T16:14:29.771Z,1009.31
2023-06-24T16:15:15.791Z,1009.21
2023-06-24T16:16:01.715Z,1009.41
2023-06-24T16:16:47.772Z,1009.41
2023-06-24T16:17:33.753Z,1009.41
2023-06-24T16:18:19.718Z,1009.31
2023-06-24T16:19:05.755Z,1009.41
2023-06-24T16:19:51.743Z,1009.41
2023-06-24T16:20:37.992Z,1009.41
2023-06-24T16:21:23.856Z,1009.31
2023-06-24T16:22:09.722Z,1009.31
2023-06-24T16:22:55.772Z,1009.41
2023-06-24T16:23:41.740Z,1009.41
2023-06-24T16:24:27.751Z,1009.31
2023-06-24T16:25:13.738Z,1009.21
2023-06-24T16:25:59.717Z,1009.41
2023-06-24T16:26:52.533Z,1009.41
2023-06-24T16:27:31.690Z,1009.41
2023-06-24T16:28:18.721Z,1009.21
2023-06-24T16:29:03.854Z,1009.21
2023-06-24T16:29:49.747Z,1009.21
2023-06-24T16:30:36.067Z,1009.21
2023-06-24T16:31:21.814Z,1009.11
2023-06-24T16:32:07.821Z,1009.11
2023-06-24T16:32:53.963Z,1009.31
2023-06-24T16:33:39.748Z,1009.31
2023-06-24T16:34:26.852Z,1009.31
2023-06-24T16:35:11.706Z,1009.31
2023-06-24T16:35:57.713Z,1009.01
2023-06-24T16:36:43.749Z,1009.01
2023-06-24T16:37:29.777Z,1009.21
2023-06-24T16:38:15.766Z,1009.01
2023-06-24T16:39:01.806Z,1009.31
2023-06-24T16:39:47.737Z,1009.31
2023-06-24T16:40:33.880Z,1009.41
2023-06-24T16:41:19.776Z,1009.21
2023-06-24T16:42:05.792Z,1009.21
2023-06-24T16:42:51.777Z,1009.21
2023-06-24T16:43:37.813Z,1009.11
2023-06-24T16:44:23.873Z,1009.31
2023-06-24T16:45:09.882Z,1009.01
2023-06-24T16:45:55.784Z,1009.21
2023-06-24T16:46:41.859Z,1009.21
2023-06-24T16:47:27.854Z,1009.41
2023-06-24T16:48:13.800Z,1009.21
2023-06-24T16:48:59.829Z,1009.21
2023-06-24T16:49:45.821Z,1009.21
2023-06-24T16:50:31.767Z,1009.21
2023-06-24T16:51:17.838Z,1009.01
2023-06-24T16:52:03.813Z,1009.21
2023-06-24T16:52:49.806Z,1009.21
2023-06-24T16:53:35.914Z,1009.01
2023-06-24T16:54:21.822Z,1009.41
2023-06-24T16:55:07.841Z,1009.11
2023-06-24T16:55:53.930Z,1009.31
2023-06-24T16:56:39.811Z,1009.31
2023-06-24T16:57:25.879Z,1009.21
2023-06-24T16:58:11.810Z,1009.01
2023-06-24T16:58:57.868Z,1009.31
2023-06-24T16:59:43.835Z,1009.31
2023-06-24T17:00:29.972Z,1009.11
2023-06-24T17:01:15.794Z,1009.21
2023-06-24T17:02:01.868Z,1009.11
2023-06-24T17:02:47.994Z,1009.11
2023-06-24T17:03:33.996Z,1009.01
2023-06-24T17:04:19.858Z,1009.11
2023-06-24T17:05:05.871Z,1009.11
2023-06-24T17:05:51.883Z,1009.11
2023-06-24T17:06:37.904Z,1009.11
2023-06-24T17:07:24.011Z,1009.31
2023-06-24T17:08:09.850Z,1008.91
2023-06-24T17:08:55.829Z,1009.31
2023-06-24T17:09:41.920Z,1009.31
2023-06-24T17:10:27.884Z,1009.21
2023-06-24T17:11:13.828Z,1009.31
2023-06-24T17:11:59.868Z,1009.11
2023-06-24T17:12:45.786Z,1009.11
2023-06-24T17:13:31.884Z,1009.41
2023-06-24T17:14:17.915Z,1009.01
2023-06-24T17:15:03.916Z,1009.11
2023-06-24T17:15:49.940Z,1009.11
2023-06-24T17:16:35.908Z,1009.01
2023-06-24T17:17:21.941Z,1009.11
2023-06-24T17:18:07.882Z,1009.11
2023-06-24T17:18:53.944Z,1009.01
2023-06-24T17:19:40.105Z,1009.01
2023-06-24T17:20:25.932Z,1009.01
2023-06-24T17:21:11.920Z,1009.01